sensor_id;sensor_type;location;lat;lon;timestamp;temperature;humidity
2174;DHT22;1093;51.424;11.764;2022-12-07T00:01:27;1.90;1.40
2174;DHT22;1093;51.424;11.764;2022-12-07T00:03:55;1.80;1.40
2174;DHT22;1093;51.424;11.764;2022-12-07T00:06:26;1.80;1.40
2174;DHT22;1093;51.424;11.764;2022-12-07T00:08:54;1.80;1.40
2174;DHT22;1093;51.424;11.764;2022-12-07T00:11:22;1.80;1.40
2174;DHT22;1093;51.424;11.764;2022-12-07T00:13:52;1.80;1.40
2174;DHT22;1093;51.424;11.764;2022-12-07T00:16:20;1.80;1.40
2174;DHT22;1093;51.424;11.764;2022-12-07T00:18:47;1.80;1.40
2174;DHT22;1093;51.424;11.764;2022-12-07T00:21:16;1.80;1.40
2174;DHT22;1093;51.424;11.764;2022-12-07T00:23:44;1.80;1.40
2174;DHT22;1093;51.424;11.764;2022-12-07T00:26:14;1.80;1.40
2174;DHT22;1093;51.424;11.764;2022-12-07T00:28:44;1.80;1.40
2174;DHT22;1093;51.424;11.764;2022-12-07T00:31:12;1.70;1.40
2174;DHT22;1093;51.424;11.764;2022-12-07T00:33:39;1.70;1.40
2174;DHT22;1093;51.424;11.764;2022-12-07T00:36:08;1.70;1.40
2174;DHT22;1093;51.424;11.764;2022-12-07T00:38:36;1.70;1.40
2174;DHT22;1093;51.424;11.764;2022-12-07T00:41:05;1.70;1.40
2174;DHT22;1093;51.424;11.764;2022-12-07T00:43:33;1.70;1.40
2174;DHT22;1093;51.424;11.764;2022-12-07T00:46:00;1.60;1.40
2174;DHT22;1093;51.424;11.764;2022-12-07T00:48:27;1.60;1.40
2174;DHT22;1093;51.424;11.764;2022-12-07T00:50:54;1.60;1.40
2174;DHT22;1093;51.424;11.764;2022-12-07T00:53:21;1.60;1.40
2174;DHT22;1093;51.424;11.764;2022-12-07T00:55:48;1.60;1.40
2174;DHT22;1093;51.424;11.764;2022-12-07T00:58:15;1.60;1.40
2174;DHT22;1093;51.424;11.764;2022-12-07T01:00:43;1.70;1.40
2174;DHT22;1093;51.424;11.764;2022-12-07T01:03:12;1.70;1.40
2174;DHT22;1093;51.424;11.764;2022-12-07T01:05:39;1.70;1.40
2174;DHT22;1093;51.424;11.764;2022-12-07T01:08:06;1.70;1.40
2174;DHT22;1093;51.424;11.764;2022-12-07T01:10:33;1.60;1.40
2174;DHT22;1093;51.424;11.764;2022-12-07T01:13:00;1.60;1.40
2174;DHT22;1093;51.424;11.764;2022-12-07T01:15:27;1.60;1.40
2174;DHT22;1093;51.424;11.764;2022-12-07T01:17:55;1.60;1.40
2174;DHT22;1093;51.424;11.764;2022-12-07T01:20:22;1.60;1.40
2174;DHT22;1093;51.424;11.764;2022-12-07T01:22:49;1.60;1.40
2174;DHT22;1093;51.424;11.764;2022-12-07T01:25:16;1.60;1.40
2174;DHT22;1093;51.424;11.764;2022-12-07T01:27:43;1.60;1.40
2174;DHT22;1093;51.424;11.764;2022-12-07T01:30:11;1.60;1.40
2174;DHT22;1093;51.424;11.764;2022-12-07T01:32:39;1.60;1.40
2174;DHT22;1093;51.424;11.764;2022-12-07T01:35:08;1.60;1.40
2174;DHT22;1093;51.424;11.764;2022-12-07T01:37:36;1.60;1.40
2174;DHT22;1093;51.424;11.764;2022-12-07T01:40:05;1.60;1.40
2174;DHT22;1093;51.424;11.764;2022-12-07T01:42:32;1.60;1.40
2174;DHT22;1093;51.424;11.764;2022-12-07T01:48:06;1.60;1.40
2174;DHT22;1093;51.424;11.764;2022-12-07T01:50:36;1.70;1.40
2174;DHT22;1093;51.424;11.764;2022-12-07T01:53:06;1.60;1.40
2174;DHT22;1093;51.424;11.764;2022-12-07T01:55:35;1.60;1.40
2174;DHT22;1093;51.424;11.764;2022-12-07T01:58:04;1.70;1.40
2174;DHT22;1093;51.424;11.764;2022-12-07T02:00:31;1.60;1.40
2174;DHT22;1093;51.424;11.764;2022-12-07T02:03:04;1.60;1.40
2174;DHT22;1093;51.424;11.764;2022-12-07T02:05:34;1.60;1.40
2174;DHT22;1093;51.424;11.764;2022-12-07T02:08:02;1.60;1.40
2174;DHT22;1093;51.424;11.764;2022-12-07T02:10:30;1.60;1.40
2174;DHT22;1093;51.424;11.764;2022-12-07T02:12:59;1.60;1.40
2174;DHT22;1093;51.424;11.764;2022-12-07T02:15:36;1.60;1.40
2174;DHT22;1093;51.424;11.764;2022-12-07T02:18:09;1.60;1.40
2174;DHT22;1093;51.424;11.764;2022-12-07T02:20:45;1.60;1.40
2174;DHT22;1093;51.424;11.764;2022-12-07T02:23:34;1.60;1.40
2174;DHT22;1093;51.424;11.764;2022-12-07T02:29:17;1.80;1.40
2174;DHT22;1093;51.424;11.764;2022-12-07T02:31:48;1.80;1.40
2174;DHT22;1093;51.424;11.764;2022-12-07T02:34:22;1.90;1.40
2174;DHT22;1093;51.424;11.764;2022-12-07T02:36:54;1.90;1.40
2174;DHT22;1093;51.424;11.764;2022-12-07T02:39:28;2.00;1.40
2174;DHT22;1093;51.424;11.764;2022-12-07T02:42:01;2.10;1.40
2174;DHT22;1093;51.424;11.764;2022-12-07T02:44:31;2.10;1.40
2174;DHT22;1093;51.424;11.764;2022-12-07T02:47:02;2.20;1.40
2174;DHT22;1093;51.424;11.764;2022-12-07T02:49:30;2.20;1.40
2174;DHT22;1093;51.424;11.764;2022-12-07T02:51:57;2.20;1.40
2174;DHT22;1093;51.424;11.764;2022-12-07T02:54:24;2.30;1.40
2174;DHT22;1093;51.424;11.764;2022-12-07T02:56:57;2.20;1.40
2174;DHT22;1093;51.424;11.764;2022-12-07T02:59:32;2.20;1.40
2174;DHT22;1093;51.424;11.764;2022-12-07T03:02:11;2.30;1.40
2174;DHT22;1093;51.424;11.764;2022-12-07T03:04:49;2.30;1.40
2174;DHT22;1093;51.424;11.764;2022-12-07T03:07:25;2.30;1.40
2174;DHT22;1093;51.424;11.764;2022-12-07T03:10:01;2.30;1.40
2174;DHT22;1093;51.424;11.764;2022-12-07T03:12:32;2.30;1.40
2174;DHT22;1093;51.424;11.764;2022-12-07T03:15:09;2.30;1.40
2174;DHT22;1093;51.424;11.764;2022-12-07T03:17:40;2.30;1.40
2174;DHT22;1093;51.424;11.764;2022-12-07T03:20:11;2.30;1.40
2174;DHT22;1093;51.424;11.764;2022-12-07T03:22:42;2.30;1.40
2174;DHT22;1093;51.424;11.764;2022-12-07T03:25:12;2.30;1.40
2174;DHT22;1093;51.424;11.764;2022-12-07T03:27:44;2.30;1.40
2174;DHT22;1093;51.424;11.764;2022-12-07T03:30:18;2.40;1.40
2174;DHT22;1093;51.424;11.764;2022-12-07T03:32:49;2.40;1.40
2174;DHT22;1093;51.424;11.764;2022-12-07T03:35:19;2.40;1.40
2174;DHT22;1093;51.424;11.764;2022-12-07T03:37:51;2.40;1.40
2174;DHT22;1093;51.424;11.764;2022-12-07T03:40:23;2.40;1.40
2174;DHT22;1093;51.424;11.764;2022-12-07T03:42:53;2.40;1.40
2174;DHT22;1093;51.424;11.764;2022-12-07T03:45:32;2.40;1.40
2174;DHT22;1093;51.424;11.764;2022-12-07T03:48:05;2.40;1.40
2174;DHT22;1093;51.424;11.764;2022-12-07T03:50:38;2.40;1.40
2174;DHT22;1093;51.424;11.764;2022-12-07T03:53:11;2.40;1.40
2174;DHT22;1093;51.424;11.764;2022-12-07T03:55:42;2.40;1.40
2174;DHT22;1093;51.424;11.764;2022-12-07T03:58:12;2.40;1.40
2174;DHT22;1093;51.424;11.764;2022-12-07T04:00:43;2.40;1.40
2174;DHT22;1093;51.424;11.764;2022-12-07T04:03:10;2.50;1.40
2174;DHT22;1093;51.424;11.764;2022-12-07T04:05:38;2.50;1.40
2174;DHT22;1093;51.424;11.764;2022-12-07T04:08:05;2.50;1.40
2174;DHT22;1093;51.424;11.764;2022-12-07T04:10:32;2.50;1.40
2174;DHT22;1093;51.424;11.764;2022-12-07T04:12:59;2.50;1.40
2174;DHT22;1093;51.424;11.764;2022-12-07T04:15:26;2.60;1.40
2174;DHT22;1093;51.424;11.764;2022-12-07T04:17:54;2.50;1.40
2174;DHT22;1093;51.424;11.764;2022-12-07T04:20:21;2.60;1.40
2174;DHT22;1093;51.424;11.764;2022-12-07T04:22:49;2.60;1.40
2174;DHT22;1093;51.424;11.764;2022-12-07T04:25:16;2.60;1.40
2174;DHT22;1093;51.424;11.764;2022-12-07T04:27:42;2.60;1.40
2174;DHT22;1093;51.424;11.764;2022-12-07T04:30:10;2.70;1.40
2174;DHT22;1093;51.424;11.764;2022-12-07T04:32:38;2.70;1.40
2174;DHT22;1093;51.424;11.764;2022-12-07T04:35:07;2.70;1.40
2174;DHT22;1093;51.424;11.764;2022-12-07T04:37:34;2.70;1.40
2174;DHT22;1093;51.424;11.764;2022-12-07T04:40:01;2.70;1.40
2174;DHT22;1093;51.424;11.764;2022-12-07T04:42:28;2.70;1.40
2174;DHT22;1093;51.424;11.764;2022-12-07T04:44:55;2.70;1.40
2174;DHT22;1093;51.424;11.764;2022-12-07T04:47:22;2.70;1.40
2174;DHT22;1093;51.424;11.764;2022-12-07T04:49:49;2.70;1.40
2174;DHT22;1093;51.424;11.764;2022-12-07T04:52:18;2.70;1.40
2174;DHT22;1093;51.424;11.764;2022-12-07T04:54:44;2.70;1.40
2174;DHT22;1093;51.424;11.764;2022-12-07T04:57:11;2.80;1.40
2174;DHT22;1093;51.424;11.764;2022-12-07T04:59:38;2.80;1.40
2174;DHT22;1093;51.424;11.764;2022-12-07T05:02:05;2.80;1.40
2174;DHT22;1093;51.424;11.764;2022-12-07T05:04:32;2.80;1.40
2174;DHT22;1093;51.424;11.764;2022-12-07T05:06:58;2.80;1.40
2174;DHT22;1093;51.424;11.764;2022-12-07T05:09:27;2.80;1.40
2174;DHT22;1093;51.424;11.764;2022-12-07T05:11:55;2.80;1.40
2174;DHT22;1093;51.424;11.764;2022-12-07T05:14:22;2.80;1.40
2174;DHT22;1093;51.424;11.764;2022-12-07T05:16:50;2.80;1.40
2174;DHT22;1093;51.424;11.764;2022-12-07T05:19:19;2.80;1.40
2174;DHT22;1093;51.424;11.764;2022-12-07T05:21:46;2.80;1.40
2174;DHT22;1093;51.424;11.764;2022-12-07T05:24:14;2.80;1.40
2174;DHT22;1093;51.424;11.764;2022-12-07T05:26:43;2.80;1.40
2174;DHT22;1093;51.424;11.764;2022-12-07T05:29:11;2.80;1.40
2174;DHT22;1093;51.424;11.764;2022-12-07T05:31:38;2.80;1.40
2174;DHT22;1093;51.424;11.764;2022-12-07T05:34:05;2.80;1.40
2174;DHT22;1093;51.424;11.764;2022-12-07T05:36:32;2.80;1.40
2174;DHT22;1093;51.424;11.764;2022-12-07T05:38:59;2.80;1.40
2174;DHT22;1093;51.424;11.764;2022-12-07T05:41:26;2.80;1.40
2174;DHT22;1093;51.424;11.764;2022-12-07T05:44:12;2.80;1.40
2174;DHT22;1093;51.424;11.764;2022-12-07T05:46:39;2.80;1.40
2174;DHT22;1093;51.424;11.764;2022-12-07T05:49:05;2.80;1.40
2174;DHT22;1093;51.424;11.764;2022-12-07T05:51:32;2.90;1.40
2174;DHT22;1093;51.424;11.764;2022-12-07T05:54:00;2.90;1.40
2174;DHT22;1093;51.424;11.764;2022-12-07T05:56:27;2.90;1.40
2174;DHT22;1093;51.424;11.764;2022-12-07T05:58:54;2.80;1.40
2174;DHT22;1093;51.424;11.764;2022-12-07T06:01:40;2.80;1.40
2174;DHT22;1093;51.424;11.764;2022-12-07T06:04:07;2.80;1.40
2174;DHT22;1093;51.424;11.764;2022-12-07T06:06:33;2.80;1.40
2174;DHT22;1093;51.424;11.764;2022-12-07T06:09:00;2.80;1.40
2174;DHT22;1093;51.424;11.764;2022-12-07T06:11:27;2.80;1.40
2174;DHT22;1093;51.424;11.764;2022-12-07T06:14:20;2.80;1.40
2174;DHT22;1093;51.424;11.764;2022-12-07T06:16:48;2.70;1.40
2174;DHT22;1093;51.424;11.764;2022-12-07T06:19:15;2.70;1.40
2174;DHT22;1093;51.424;11.764;2022-12-07T06:21:43;2.70;1.40
2174;DHT22;1093;51.424;11.764;2022-12-07T06:24:11;2.70;1.40
2174;DHT22;1093;51.424;11.764;2022-12-07T06:26:38;2.70;1.40
2174;DHT22;1093;51.424;11.764;2022-12-07T06:29:05;2.80;1.40
2174;DHT22;1093;51.424;11.764;2022-12-07T06:31:32;2.80;1.40
2174;DHT22;1093;51.424;11.764;2022-12-07T06:34:01;2.80;1.40
2174;DHT22;1093;51.424;11.764;2022-12-07T06:36:28;2.80;1.40
2174;DHT22;1093;51.424;11.764;2022-12-07T06:38:55;2.80;1.40
2174;DHT22;1093;51.424;11.764;2022-12-07T06:41:23;2.70;1.40
2174;DHT22;1093;51.424;11.764;2022-12-07T06:43:50;2.70;1.40
2174;DHT22;1093;51.424;11.764;2022-12-07T06:46:17;2.80;1.40
2174;DHT22;1093;51.424;11.764;2022-12-07T06:48:44;2.80;1.40
2174;DHT22;1093;51.424;11.764;2022-12-07T06:51:12;2.80;1.40
2174;DHT22;1093;51.424;11.764;2022-12-07T06:53:38;2.80;1.40
2174;DHT22;1093;51.424;11.764;2022-12-07T06:56:07;2.80;1.40
2174;DHT22;1093;51.424;11.764;2022-12-07T06:58:33;2.80;1.40
2174;DHT22;1093;51.424;11.764;2022-12-07T07:01:00;2.80;1.40
2174;DHT22;1093;51.424;11.764;2022-12-07T07:03:28;2.80;1.40
2174;DHT22;1093;51.424;11.764;2022-12-07T07:05:55;2.80;1.40
2174;DHT22;1093;51.424;11.764;2022-12-07T07:08:23;2.80;1.40
2174;DHT22;1093;51.424;11.764;2022-12-07T07:10:50;2.80;1.40
2174;DHT22;1093;51.424;11.764;2022-12-07T07:13:17;2.80;1.40
2174;DHT22;1093;51.424;11.764;2022-12-07T07:15:44;2.80;1.40
2174;DHT22;1093;51.424;11.764;2022-12-07T07:18:11;2.80;1.40
2174;DHT22;1093;51.424;11.764;2022-12-07T07:20:38;2.80;1.40
2174;DHT22;1093;51.424;11.764;2022-12-07T07:23:05;2.80;1.40
2174;DHT22;1093;51.424;11.764;2022-12-07T07:25:34;2.80;1.40
2174;DHT22;1093;51.424;11.764;2022-12-07T07:28:01;2.90;1.40
2174;DHT22;1093;51.424;11.764;2022-12-07T07:30:28;2.90;1.40
2174;DHT22;1093;51.424;11.764;2022-12-07T07:32:56;3.00;1.40
2174;DHT22;1093;51.424;11.764;2022-12-07T07:35:23;3.00;1.40
2174;DHT22;1093;51.424;11.764;2022-12-07T07:37:50;3.00;1.40
2174;DHT22;1093;51.424;11.764;2022-12-07T07:40:17;3.00;1.40
2174;DHT22;1093;51.424;11.764;2022-12-07T07:42:47;3.00;1.40
2174;DHT22;1093;51.424;11.764;2022-12-07T07:45:13;3.00;1.40
2174;DHT22;1093;51.424;11.764;2022-12-07T07:47:41;3.00;1.40
2174;DHT22;1093;51.424;11.764;2022-12-07T07:50:08;3.00;1.40
2174;DHT22;1093;51.424;11.764;2022-12-07T07:52:35;3.10;1.40
2174;DHT22;1093;51.424;11.764;2022-12-07T07:55:03;3.20;1.40
2174;DHT22;1093;51.424;11.764;2022-12-07T07:57:30;3.20;1.40
2174;DHT22;1093;51.424;11.764;2022-12-07T07:59:58;3.30;1.40
2174;DHT22;1093;51.424;11.764;2022-12-07T08:02:25;3.20;1.40
2174;DHT22;1093;51.424;11.764;2022-12-07T08:04:55;3.30;1.40
2174;DHT22;1093;51.424;11.764;2022-12-07T08:07:22;3.30;1.40
2174;DHT22;1093;51.424;11.764;2022-12-07T08:09:48;3.30;1.40
2174;DHT22;1093;51.424;11.764;2022-12-07T08:12:15;3.30;1.40
2174;DHT22;1093;51.424;11.764;2022-12-07T08:14:42;3.30;1.40
2174;DHT22;1093;51.424;11.764;2022-12-07T08:17:10;3.30;1.40
2174;DHT22;1093;51.424;11.764;2022-12-07T08:19:37;3.30;1.40
2174;DHT22;1093;51.424;11.764;2022-12-07T08:22:04;3.40;1.40
2174;DHT22;1093;51.424;11.764;2022-12-07T08:24:33;3.40;1.40
2174;DHT22;1093;51.424;11.764;2022-12-07T08:27:00;3.50;1.40
2174;DHT22;1093;51.424;11.764;2022-12-07T08:29:26;3.50;1.40
2174;DHT22;1093;51.424;11.764;2022-12-07T08:31:53;3.50;1.40
2174;DHT22;1093;51.424;11.764;2022-12-07T08:34:21;3.60;1.40
2174;DHT22;1093;51.424;11.764;2022-12-07T08:36:48;3.60;1.40
2174;DHT22;1093;51.424;11.764;2022-12-07T08:39:15;3.60;1.40
2174;DHT22;1093;51.424;11.764;2022-12-07T08:41:42;3.60;1.40
2174;DHT22;1093;51.424;11.764;2022-12-07T08:44:10;3.60;1.40
2174;DHT22;1093;51.424;11.764;2022-12-07T08:46:38;3.60;1.40
2174;DHT22;1093;51.424;11.764;2022-12-07T08:49:10;3.70;1.40
2174;DHT22;1093;51.424;11.764;2022-12-07T08:51:40;3.60;1.40
2174;DHT22;1093;51.424;11.764;2022-12-07T08:54:10;3.60;1.40
2174;DHT22;1093;51.424;11.764;2022-12-07T08:56:37;3.70;1.40
2174;DHT22;1093;51.424;11.764;2022-12-07T08:59:05;3.70;1.40
2174;DHT22;1093;51.424;11.764;2022-12-07T09:01:33;3.70;1.40
2174;DHT22;1093;51.424;11.764;2022-12-07T09:04:00;3.70;1.40
2174;DHT22;1093;51.424;11.764;2022-12-07T09:06:27;3.80;1.40
2174;DHT22;1093;51.424;11.764;2022-12-07T09:08:58;3.80;1.40
2174;DHT22;1093;51.424;11.764;2022-12-07T09:11:27;3.90;1.40
2174;DHT22;1093;51.424;11.764;2022-12-07T09:13:54;3.90;1.40
2174;DHT22;1093;51.424;11.764;2022-12-07T09:16:21;3.90;1.40
2174;DHT22;1093;51.424;11.764;2022-12-07T09:18:48;3.90;1.40
2174;DHT22;1093;51.424;11.764;2022-12-07T09:21:15;3.90;1.40
2174;DHT22;1093;51.424;11.764;2022-12-07T09:23:42;3.90;1.40
2174;DHT22;1093;51.424;11.764;2022-12-07T09:26:10;3.90;1.40
2174;DHT22;1093;51.424;11.764;2022-12-07T09:28:37;4.00;1.40
2174;DHT22;1093;51.424;11.764;2022-12-07T09:31:06;4.00;1.40
2174;DHT22;1093;51.424;11.764;2022-12-07T09:33:35;4.00;1.40
2174;DHT22;1093;51.424;11.764;2022-12-07T09:36:03;4.10;1.40
2174;DHT22;1093;51.424;11.764;2022-12-07T09:38:30;4.10;1.40
2174;DHT22;1093;51.424;11.764;2022-12-07T09:41:04;4.20;1.40
2174;DHT22;1093;51.424;11.764;2022-12-07T09:43:35;4.30;1.40
2174;DHT22;1093;51.424;11.764;2022-12-07T09:46:03;4.30;1.40
2174;DHT22;1093;51.424;11.764;2022-12-07T09:48:32;4.30;1.40
2174;DHT22;1093;51.424;11.764;2022-12-07T09:51:00;4.30;1.40
2174;DHT22;1093;51.424;11.764;2022-12-07T09:53:29;4.30;1.40
2174;DHT22;1093;51.424;11.764;2022-12-07T09:55:57;4.40;1.40
2174;DHT22;1093;51.424;11.764;2022-12-07T09:58:27;4.40;1.40
2174;DHT22;1093;51.424;11.764;2022-12-07T10:00:57;4.50;1.40
2174;DHT22;1093;51.424;11.764;2022-12-07T10:03:26;4.50;1.40
2174;DHT22;1093;51.424;11.764;2022-12-07T10:05:54;4.50;1.40
2174;DHT22;1093;51.424;11.764;2022-12-07T10:08:21;4.50;1.40
2174;DHT22;1093;51.424;11.764;2022-12-07T10:10:51;4.60;1.40
2174;DHT22;1093;51.424;11.764;2022-12-07T10:13:20;4.60;1.40
2174;DHT22;1093;51.424;11.764;2022-12-07T10:15:50;4.60;1.40
2174;DHT22;1093;51.424;11.764;2022-12-07T10:18:28;4.60;1.40
2174;DHT22;1093;51.424;11.764;2022-12-07T10:21:14;4.60;1.40
2174;DHT22;1093;51.424;11.764;2022-12-07T10:23:43;4.60;1.40
2174;DHT22;1093;51.424;11.764;2022-12-07T10:26:31;4.60;1.40
2174;DHT22;1093;51.424;11.764;2022-12-07T10:29:01;4.70;1.40
2174;DHT22;1093;51.424;11.764;2022-12-07T10:31:28;4.60;1.40
2174;DHT22;1093;51.424;11.764;2022-12-07T10:33:58;4.60;1.40
2174;DHT22;1093;51.424;11.764;2022-12-07T10:36:29;4.70;1.40
2174;DHT22;1093;51.424;11.764;2022-12-07T10:39:02;4.70;1.40
2174;DHT22;1093;51.424;11.764;2022-12-07T10:41:30;4.70;1.40
2174;DHT22;1093;51.424;11.764;2022-12-07T10:43:57;4.70;1.40
2174;DHT22;1093;51.424;11.764;2022-12-07T10:46:43;4.80;1.40
2174;DHT22;1093;51.424;11.764;2022-12-07T10:49:35;4.80;1.40
2174;DHT22;1093;51.424;11.764;2022-12-07T10:52:15;4.80;1.40
2174;DHT22;1093;51.424;11.764;2022-12-07T10:54:51;4.80;1.40
2174;DHT22;1093;51.424;11.764;2022-12-07T10:57:36;4.80;1.40
2174;DHT22;1093;51.424;11.764;2022-12-07T11:00:13;4.90;1.40
2174;DHT22;1093;51.424;11.764;2022-12-07T11:02:53;4.90;1.40
2174;DHT22;1093;51.424;11.764;2022-12-07T11:05:33;4.90;1.40
2174;DHT22;1093;51.424;11.764;2022-12-07T11:08:13;4.90;1.40
2174;DHT22;1093;51.424;11.764;2022-12-07T11:10:44;5.00;1.40
2174;DHT22;1093;51.424;11.764;2022-12-07T11:13:25;5.00;1.40
2174;DHT22;1093;51.424;11.764;2022-12-07T11:18:55;5.00;1.40
2174;DHT22;1093;51.424;11.764;2022-12-07T11:21:31;5.00;1.40
2174;DHT22;1093;51.424;11.764;2022-12-07T11:24:03;5.00;1.40
2174;DHT22;1093;51.424;11.764;2022-12-07T11:26:42;5.10;1.40
2174;DHT22;1093;51.424;11.764;2022-12-07T11:29:38;5.10;1.40
2174;DHT22;1093;51.424;11.764;2022-12-07T11:32:14;5.20;1.40
2174;DHT22;1093;51.424;11.764;2022-12-07T11:34:49;5.20;1.40
2174;DHT22;1093;51.424;11.764;2022-12-07T11:37:21;5.20;1.40
2174;DHT22;1093;51.424;11.764;2022-12-07T11:39:51;5.20;1.40
2174;DHT22;1093;51.424;11.764;2022-12-07T11:42:22;5.20;1.40
2174;DHT22;1093;51.424;11.764;2022-12-07T11:44:55;5.20;1.40
2174;DHT22;1093;51.424;11.764;2022-12-07T11:47:28;5.20;1.40
2174;DHT22;1093;51.424;11.764;2022-12-07T11:50:03;5.20;1.40
2174;DHT22;1093;51.424;11.764;2022-12-07T11:52:44;5.20;1.40
2174;DHT22;1093;51.424;11.764;2022-12-07T11:55:19;5.20;1.40
2174;DHT22;1093;51.424;11.764;2022-12-07T11:57:54;5.20;1.40
2174;DHT22;1093;51.424;11.764;2022-12-07T12:00:25;5.20;1.40
2174;DHT22;1093;51.424;11.764;2022-12-07T12:02:57;5.20;1.40
2174;DHT22;1093;51.424;11.764;2022-12-07T12:05:26;5.20;1.40
2174;DHT22;1093;51.424;11.764;2022-12-07T12:08:01;5.20;1.40
2174;DHT22;1093;51.424;11.764;2022-12-07T12:10:38;5.20;1.40
2174;DHT22;1093;51.424;11.764;2022-12-07T12:13:43;5.20;1.40
2174;DHT22;1093;51.424;11.764;2022-12-07T12:16:46;5.20;1.40
2174;DHT22;1093;51.424;11.764;2022-12-07T12:19:23;5.30;1.40
2174;DHT22;1093;51.424;11.764;2022-12-07T12:21:56;5.30;1.40
2174;DHT22;1093;51.424;11.764;2022-12-07T12:24:27;5.30;1.40
2174;DHT22;1093;51.424;11.764;2022-12-07T12:27:01;5.30;1.40
2174;DHT22;1093;51.424;11.764;2022-12-07T12:29:33;5.30;1.40
2174;DHT22;1093;51.424;11.764;2022-12-07T12:32:07;5.30;1.40
2174;DHT22;1093;51.424;11.764;2022-12-07T12:34:40;5.30;1.40
2174;DHT22;1093;51.424;11.764;2022-12-07T12:37:44;5.30;1.40
2174;DHT22;1093;51.424;11.764;2022-12-07T12:43:45;5.30;1.40
2174;DHT22;1093;51.424;11.764;2022-12-07T12:46:45;5.30;1.40
2174;DHT22;1093;51.424;11.764;2022-12-07T12:49:34;5.20;1.40
2174;DHT22;1093;51.424;11.764;2022-12-07T12:58:36;5.20;1.40
2174;DHT22;1093;51.424;11.764;2022-12-07T13:04:30;5.20;1.40
2174;DHT22;1093;51.424;11.764;2022-12-07T13:07:02;5.20;1.40
2174;DHT22;1093;51.424;11.764;2022-12-07T13:09:31;5.20;1.40
2174;DHT22;1093;51.424;11.764;2022-12-07T13:12:02;5.10;1.40
2174;DHT22;1093;51.424;11.764;2022-12-07T13:14:58;5.10;1.40
2174;DHT22;1093;51.424;11.764;2022-12-07T13:17:57;5.10;1.40
2174;DHT22;1093;51.424;11.764;2022-12-07T13:20:48;5.10;1.40
2174;DHT22;1093;51.424;11.764;2022-12-07T13:23:19;5.10;1.40
2174;DHT22;1093;51.424;11.764;2022-12-07T13:26:02;5.10;1.40
2174;DHT22;1093;51.424;11.764;2022-12-07T13:28:35;5.00;1.40
2174;DHT22;1093;51.424;11.764;2022-12-07T13:31:18;5.00;1.40
2174;DHT22;1093;51.424;11.764;2022-12-07T13:33:47;5.00;1.40
2174;DHT22;1093;51.424;11.764;2022-12-07T13:36:20;5.10;1.40
2174;DHT22;1093;51.424;11.764;2022-12-07T13:38:54;5.00;1.40
2174;DHT22;1093;51.424;11.764;2022-12-07T13:41:24;5.00;1.40
2174;DHT22;1093;51.424;11.764;2022-12-07T13:43:59;5.00;1.40
2174;DHT22;1093;51.424;11.764;2022-12-07T13:46:35;5.00;1.40
2174;DHT22;1093;51.424;11.764;2022-12-07T13:49:17;4.90;1.40
2174;DHT22;1093;51.424;11.764;2022-12-07T13:51:46;4.90;1.40
2174;DHT22;1093;51.424;11.764;2022-12-07T13:54:14;4.90;1.40
2174;DHT22;1093;51.424;11.764;2022-12-07T13:56:41;4.90;1.40
2174;DHT22;1093;51.424;11.764;2022-12-07T13:59:14;4.90;1.40
2174;DHT22;1093;51.424;11.764;2022-12-07T14:01:45;4.90;1.40
2174;DHT22;1093;51.424;11.764;2022-12-07T14:04:30;4.90;1.40
2174;DHT22;1093;51.424;11.764;2022-12-07T14:07:15;4.90;1.40
2174;DHT22;1093;51.424;11.764;2022-12-07T14:09:54;5.00;1.40
2174;DHT22;1093;51.424;11.764;2022-12-07T14:12:21;4.90;1.40
2174;DHT22;1093;51.424;11.764;2022-12-07T14:14:48;4.90;1.40
2174;DHT22;1093;51.424;11.764;2022-12-07T14:17:17;4.90;1.40
2174;DHT22;1093;51.424;11.764;2022-12-07T14:19:48;4.90;1.40
2174;DHT22;1093;51.424;11.764;2022-12-07T14:22:25;4.80;1.40
2174;DHT22;1093;51.424;11.764;2022-12-07T14:25:00;4.80;1.40
2174;DHT22;1093;51.424;11.764;2022-12-07T14:27:32;4.80;1.40
2174;DHT22;1093;51.424;11.764;2022-12-07T14:30:00;4.80;1.40
2174;DHT22;1093;51.424;11.764;2022-12-07T14:32:29;4.80;1.40
2174;DHT22;1093;51.424;11.764;2022-12-07T14:34:59;4.80;1.40
2174;DHT22;1093;51.424;11.764;2022-12-07T14:37:29;4.70;1.40
2174;DHT22;1093;51.424;11.764;2022-12-07T14:40:02;4.70;1.40
2174;DHT22;1093;51.424;11.764;2022-12-07T14:42:30;4.70;1.40
2174;DHT22;1093;51.424;11.764;2022-12-07T14:44:59;4.70;1.40
2174;DHT22;1093;51.424;11.764;2022-12-07T14:47:26;4.70;1.40
2174;DHT22;1093;51.424;11.764;2022-12-07T14:49:53;4.70;1.40
2174;DHT22;1093;51.424;11.764;2022-12-07T14:52:23;4.70;1.40
2174;DHT22;1093;51.424;11.764;2022-12-07T14:54:53;4.70;1.40
2174;DHT22;1093;51.424;11.764;2022-12-07T14:57:20;4.70;1.40
2174;DHT22;1093;51.424;11.764;2022-12-07T14:59:47;4.70;1.40
2174;DHT22;1093;51.424;11.764;2022-12-07T15:02:15;4.70;1.40
2174;DHT22;1093;51.424;11.764;2022-12-07T15:04:42;4.70;1.40
2174;DHT22;1093;51.424;11.764;2022-12-07T15:07:16;4.60;1.40
2174;DHT22;1093;51.424;11.764;2022-12-07T15:09:45;4.60;1.40
2174;DHT22;1093;51.424;11.764;2022-12-07T15:12:14;4.60;1.40
2174;DHT22;1093;51.424;11.764;2022-12-07T15:14:41;4.60;1.40
2174;DHT22;1093;51.424;11.764;2022-12-07T15:17:10;4.60;1.40
2174;DHT22;1093;51.424;11.764;2022-12-07T15:19:38;4.60;1.40
2174;DHT22;1093;51.424;11.764;2022-12-07T15:22:05;4.60;1.40
2174;DHT22;1093;51.424;11.764;2022-12-07T15:24:33;4.60;1.40
2174;DHT22;1093;51.424;11.764;2022-12-07T15:27:01;4.60;1.40
2174;DHT22;1093;51.424;11.764;2022-12-07T15:29:29;4.60;1.40
2174;DHT22;1093;51.424;11.764;2022-12-07T15:31:57;4.50;1.40
2174;DHT22;1093;51.424;11.764;2022-12-07T15:34:24;4.50;1.40
2174;DHT22;1093;51.424;11.764;2022-12-07T15:36:52;4.50;1.40
2174;DHT22;1093;51.424;11.764;2022-12-07T15:39:19;4.50;1.40
2174;DHT22;1093;51.424;11.764;2022-12-07T15:41:47;4.50;1.40
2174;DHT22;1093;51.424;11.764;2022-12-07T15:44:14;4.50;1.40
2174;DHT22;1093;51.424;11.764;2022-12-07T15:47:01;4.40;1.40
2174;DHT22;1093;51.424;11.764;2022-12-07T15:49:29;4.40;1.40
2174;DHT22;1093;51.424;11.764;2022-12-07T15:51:57;4.40;1.40
2174;DHT22;1093;51.424;11.764;2022-12-07T15:54:25;4.40;1.40
2174;DHT22;1093;51.424;11.764;2022-12-07T15:56:53;4.40;1.40
2174;DHT22;1093;51.424;11.764;2022-12-07T15:59:21;4.40;1.40
2174;DHT22;1093;51.424;11.764;2022-12-07T16:01:48;4.40;1.40
2174;DHT22;1093;51.424;11.764;2022-12-07T16:04:17;4.40;1.40
2174;DHT22;1093;51.424;11.764;2022-12-07T16:06:44;4.30;1.40
2174;DHT22;1093;51.424;11.764;2022-12-07T16:09:12;4.30;1.40
2174;DHT22;1093;51.424;11.764;2022-12-07T16:11:39;4.20;1.40
2174;DHT22;1093;51.424;11.764;2022-12-07T16:14:07;4.20;1.40
2174;DHT22;1093;51.424;11.764;2022-12-07T16:16:34;4.20;1.40
2174;DHT22;1093;51.424;11.764;2022-12-07T16:19:01;4.20;1.40
2174;DHT22;1093;51.424;11.764;2022-12-07T16:21:30;4.20;1.40
2174;DHT22;1093;51.424;11.764;2022-12-07T16:23:57;4.20;1.40
2174;DHT22;1093;51.424;11.764;2022-12-07T16:26:25;4.30;1.40
2174;DHT22;1093;51.424;11.764;2022-12-07T16:28:53;4.20;1.40
2174;DHT22;1093;51.424;11.764;2022-12-07T16:31:22;4.20;1.40
2174;DHT22;1093;51.424;11.764;2022-12-07T16:33:50;4.20;1.40
2174;DHT22;1093;51.424;11.764;2022-12-07T16:36:19;4.30;1.40
2174;DHT22;1093;51.424;11.764;2022-12-07T16:38:49;4.20;1.40
2174;DHT22;1093;51.424;11.764;2022-12-07T16:41:16;4.20;1.40
2174;DHT22;1093;51.424;11.764;2022-12-07T16:43:44;4.30;1.40
2174;DHT22;1093;51.424;11.764;2022-12-07T16:46:11;4.20;1.40
2174;DHT22;1093;51.424;11.764;2022-12-07T16:48:41;4.30;1.40
2174;DHT22;1093;51.424;11.764;2022-12-07T16:51:10;4.30;1.40
2174;DHT22;1093;51.424;11.764;2022-12-07T16:53:38;4.20;1.40
2174;DHT22;1093;51.424;11.764;2022-12-07T16:56:10;4.30;1.40
2174;DHT22;1093;51.424;11.764;2022-12-07T16:58:37;4.30;1.40
2174;DHT22;1093;51.424;11.764;2022-12-07T17:01:09;4.20;1.40